sensor_id;sensor_type;location;lat;lon;timestamp;pressure;altitude;pressure_sealevel;temperature;humidity
60437;BME280;46289;51.992;4.498;2023-02-28T00:00:11;103413.94;;;0.32;85.70
60437;BME280;46289;51.992;4.498;2023-02-28T00:02:16;103416.44;;;0.30;85.37
60437;BME280;46289;51.992;4.498;2023-02-28T00:04:21;103417.34;;;0.31;85.92
60437;BME280;46289;51.992;4.498;2023-02-28T00:06:26;103417.53;;;0.35;86.72
60437;BME280;46289;51.992;4.498;2023-02-28T00:08:32;103423.72;;;0.39;85.99
60437;BME280;46289;51.992;4.498;2023-02-28T00:10:38;103416.25;;;0.45;86.71
60437;BME280;46289;51.992;4.498;2023-02-28T00:12:42;103418.94;;;0.48;86.31
60437;BME280;46289;51.992;4.498;2023-02-28T00:14:50;103417.38;;;0.52;85.44
60437;BME280;46289;51.992;4.498;2023-02-28T00:16:55;103425.25;;;0.55;85.61
60437;BME280;46289;51.992;4.498;2023-02-28T00:19:00;103435.06;;;0.62;85.85
60437;BME280;46289;51.992;4.498;2023-02-28T00:21:05;103427.81;;;0.74;86.11
60437;BME280;46289;51.992;4.498;2023-02-28T00:23:10;103431.47;;;0.79;85.79
60437;BME280;46289;51.992;4.498;2023-02-28T00:25:17;103433.63;;;0.90;85.88
60437;BME280;46289;51.992;4.498;2023-02-28T00:27:22;103427.19;;;1.01;86.05
60437;BME280;46289;51.992;4.498;2023-02-28T00:29:27;103436.06;;;1.07;85.65
60437;BME280;46289;51.992;4.498;2023-02-28T00:31:34;103432.03;;;1.14;85.66
60437;BME280;46289;51.992;4.498;2023-02-28T00:33:39;103430.63;;;1.22;85.50
60437;BME280;46289;51.992;4.498;2023-02-28T00:35:44;103439.47;;;1.27;85.42
60437;BME280;46289;51.992;4.498;2023-02-28T00:37:50;103436.31;;;1.35;85.25
60437;BME280;46289;51.992;4.498;2023-02-28T00:39:55;103443.34;;;1.39;85.26
60437;BME280;46289;51.992;4.498;2023-02-28T00:42:00;103438.41;;;1.45;85.09
60437;BME280;46289;51.992;4.498;2023-02-28T00:44:05;103429.00;;;1.47;84.99
60437;BME280;46289;51.992;4.498;2023-02-28T00:46:09;103430.63;;;1.45;85.09
60437;BME280;46289;51.992;4.498;2023-02-28T00:48:17;103433.38;;;1.48;85.10
60437;BME280;46289;51.992;4.498;2023-02-28T00:50:21;103428.41;;;1.54;85.04
60437;BME280;46289;51.992;4.498;2023-02-28T00:52:26;103426.81;;;1.58;84.74
60437;BME280;46289;51.992;4.498;2023-02-28T00:54:31;103425.28;;;1.63;84.45
60437;BME280;46289;51.992;4.498;2023-02-28T00:56:36;103420.19;;;1.66;84.29
60437;BME280;46289;51.992;4.498;2023-02-28T00:58:40;103412.50;;;1.67;84.33
60437;BME280;46289;51.992;4.498;2023-02-28T01:00:45;103415.94;;;1.66;84.21
60437;BME280;46289;51.992;4.498;2023-02-28T01:02:53;103421.16;;;1.68;84.65
60437;BME280;46289;51.992;4.498;2023-02-28T01:05:00;103424.75;;;1.71;84.50
60437;BME280;46289;51.992;4.498;2023-02-28T01:07:06;103425.69;;;1.73;84.27
60437;BME280;46289;51.992;4.498;2023-02-28T01:09:12;103430.06;;;1.74;84.26
60437;BME280;46289;51.992;4.498;2023-02-28T01:11:17;103435.53;;;1.82;84.13
60437;BME280;46289;51.992;4.498;2023-02-28T01:13:22;103434.03;;;1.89;83.76
60437;BME280;46289;51.992;4.498;2023-02-28T01:15:27;103441.88;;;1.90;83.79
60437;BME280;46289;51.992;4.498;2023-02-28T01:17:33;103439.41;;;1.93;83.46
60437;BME280;46289;51.992;4.498;2023-02-28T01:19:38;103432.50;;;1.94;83.51
60437;BME280;46289;51.992;4.498;2023-02-28T01:21:45;103435.09;;;1.94;83.48
60437;BME280;46289;51.992;4.498;2023-02-28T01:23:50;103429.03;;;1.93;83.78
60437;BME280;46289;51.992;4.498;2023-02-28T01:25:55;103428.16;;;1.93;83.82
60437;BME280;46289;51.992;4.498;2023-02-28T01:27:59;103435.94;;;1.93;83.95
60437;BME280;46289;51.992;4.498;2023-02-28T01:30:07;103435.94;;;1.93;83.75
60437;BME280;46289;51.992;4.498;2023-02-28T01:32:12;103433.34;;;1.93;83.79
60437;BME280;46289;51.992;4.498;2023-02-28T01:34:16;103421.19;;;1.92;84.11
60437;BME280;46289;51.992;4.498;2023-02-28T01:36:23;103427.28;;;1.92;83.85
60437;BME280;46289;51.992;4.498;2023-02-28T01:38:30;103425.56;;;1.93;84.05
60437;BME280;46289;51.992;4.498;2023-02-28T01:40:35;103428.31;;;1.97;83.89
60437;BME280;46289;51.992;4.498;2023-02-28T01:42:40;103426.66;;;2.00;83.77
60437;BME280;46289;51.992;4.498;2023-02-28T01:45:01;103419.63;;;1.97;83.96
60437;BME280;46289;51.992;4.498;2023-02-28T01:47:07;103423.19;;;1.99;83.77
60437;BME280;46289;51.992;4.498;2023-02-28T01:49:14;103420.66;;;2.01;83.78
60437;BME280;46289;51.992;4.498;2023-02-28T01:51:26;103420.66;;;2.01;84.07
60437;BME280;46289;51.992;4.498;2023-02-28T01:53:38;103409.50;;;2.03;83.82
60437;BME280;46289;51.992;4.498;2023-02-28T01:55:49;103408.59;;;2.03;83.54
60437;BME280;46289;51.992;4.498;2023-02-28T01:57:57;103403.41;;;2.03;83.74
60437;BME280;46289;51.992;4.498;2023-02-28T02:00:07;103405.19;;;2.04;83.82
60437;BME280;46289;51.992;4.498;2023-02-28T02:02:16;103398.28;;;2.04;83.93
60437;BME280;46289;51.992;4.498;2023-02-28T02:04:23;103403.47;;;2.04;84.12
60437;BME280;46289;51.992;4.498;2023-02-28T02:06:35;103403.41;;;2.03;84.22
60437;BME280;46289;51.992;4.498;2023-02-28T02:08:44;103402.88;;;2.11;84.10
60437;BME280;46289;51.992;4.498;2023-02-28T02:10:50;103400.19;;;2.08;83.63
60437;BME280;46289;51.992;4.498;2023-02-28T02:13:08;103390.63;;;2.07;84.18
60437;BME280;46289;51.992;4.498;2023-02-28T02:15:16;103394.09;;;2.08;84.14
60437;BME280;46289;51.992;4.498;2023-02-28T02:17:30;103393.22;;;2.07;84.29
60437;BME280;46289;51.992;4.498;2023-02-28T02:22:37;103395.19;;;2.14;84.48
60437;BME280;46289;51.992;4.498;2023-02-28T02:25:14;103385.66;;;2.13;84.23
60437;BME280;46289;51.992;4.498;2023-02-28T02:27:30;103388.25;;;2.13;84.46
60437;BME280;46289;51.992;4.498;2023-02-28T02:32:44;103392.16;;;2.26;84.50
60437;BME280;46289;51.992;4.498;2023-02-28T02:35:00;103382.69;;;2.27;84.54
60437;BME280;46289;51.992;4.498;2023-02-28T02:37:28;103377.78;;;2.36;84.47
60437;BME280;46289;51.992;4.498;2023-02-28T02:39:40;103374.31;;;2.35;84.53
60437;BME280;46289;51.992;4.498;2023-02-28T02:41:52;103380.34;;;2.34;84.67
60437;BME280;46289;51.992;4.498;2023-02-28T02:44:02;103378.56;;;2.33;84.90
60437;BME280;46289;51.992;4.498;2023-02-28T02:46:12;103369.16;;;2.37;84.83
60437;BME280;46289;51.992;4.498;2023-02-28T02:48:21;103371.81;;;2.38;84.82
60437;BME280;46289;51.992;4.498;2023-02-28T02:50:36;103376.06;;;2.36;84.91
60437;BME280;46289;51.992;4.498;2023-02-28T02:52:48;103373.53;;;2.38;84.82
60437;BME280;46289;51.992;4.498;2023-02-28T02:54:56;103375.63;;;2.48;84.58
60437;BME280;46289;51.992;4.498;2023-02-28T02:57:06;103371.25;;;2.47;84.49
60437;BME280;46289;51.992;4.498;2023-02-28T02:59:15;103374.78;;;2.49;84.17
60437;BME280;46289;51.992;4.498;2023-02-28T03:01:24;103376.59;;;2.52;84.53
60437;BME280;46289;51.992;4.498;2023-02-28T03:03:32;103374.00;;;2.52;84.28
60437;BME280;46289;51.992;4.498;2023-02-28T03:05:46;103376.66;;;2.53;84.37
60437;BME280;46289;51.992;4.498;2023-02-28T03:07:52;103377.38;;;2.49;84.51
60437;BME280;46289;51.992;4.498;2023-02-28T03:09:57;103375.66;;;2.50;84.39
60437;BME280;46289;51.992;4.498;2023-02-28T03:12:04;103379.03;;;2.47;84.75
60437;BME280;46289;51.992;4.498;2023-02-28T03:14:23;103378.13;;;2.45;84.79
60437;BME280;46289;51.992;4.498;2023-02-28T03:16:35;103384.28;;;2.49;85.00
60437;BME280;46289;51.992;4.498;2023-02-28T03:18:49;103380.06;;;2.52;84.66
60437;BME280;46289;51.992;4.498;2023-02-28T03:21:09;103389.66;;;2.55;84.75
60437;BME280;46289;51.992;4.498;2023-02-28T03:23:22;103392.44;;;2.59;84.80
60437;BME280;46289;51.992;4.498;2023-02-28T03:25:32;103386.34;;;2.59;84.73
60437;BME280;46289;51.992;4.498;2023-02-28T03:27:48;103385.56;;;2.61;84.79
60437;BME280;46289;51.992;4.498;2023-02-28T03:29:59;103388.72;;;2.78;84.21
60437;BME280;46289;51.992;4.498;2023-02-28T03:32:08;103385.09;;;2.73;84.30
60437;BME280;46289;51.992;4.498;2023-02-28T03:34:23;103390.34;;;2.75;84.42
60437;BME280;46289;51.992;4.498;2023-02-28T03:36:35;103386.81;;;2.73;84.54
60437;BME280;46289;51.992;4.498;2023-02-28T03:38:49;103389.34;;;2.71;85.03
60437;BME280;46289;51.992;4.498;2023-02-28T03:41:01;103393.66;;;2.71;85.16
60437;BME280;46289;51.992;4.498;2023-02-28T03:43:10;103387.50;;;2.67;85.37
60437;BME280;46289;51.992;4.498;2023-02-28T03:45:19;103390.19;;;2.70;85.49
60437;BME280;46289;51.992;4.498;2023-02-28T03:47:28;103386.63;;;2.67;85.91
60437;BME280;46289;51.992;4.498;2023-02-28T03:49:40;103384.13;;;2.70;85.96
60437;BME280;46289;51.992;4.498;2023-02-28T03:51:50;103383.28;;;2.71;85.93
60437;BME280;46289;51.992;4.498;2023-02-28T03:53:59;103383.19;;;2.68;86.20
60437;BME280;46289;51.992;4.498;2023-02-28T03:56:11;103386.53;;;2.63;86.22
60437;BME280;46289;51.992;4.498;2023-02-28T03:58:23;103384.91;;;2.67;86.19
60437;BME280;46289;51.992;4.498;2023-02-28T04:00:34;103381.47;;;2.68;86.46
60437;BME280;46289;51.992;4.498;2023-02-28T04:02:40;103380.47;;;2.64;86.37
60437;BME280;46289;51.992;4.498;2023-02-28T04:04:45;103375.09;;;2.58;86.78
60437;BME280;46289;51.992;4.498;2023-02-28T04:07:00;103375.91;;;2.57;87.01
60437;BME280;46289;51.992;4.498;2023-02-28T04:09:08;103375.91;;;2.57;87.05
60437;BME280;46289;51.992;4.498;2023-02-28T04:11:19;103381.94;;;2.56;87.03
60437;BME280;46289;51.992;4.498;2023-02-28T04:13:24;103376.06;;;2.62;87.13
60437;BME280;46289;51.992;4.498;2023-02-28T04:15:30;103381.94;;;2.56;87.23
60437;BME280;46289;51.992;4.498;2023-02-28T04:17:35;103384.63;;;2.59;87.03
60437;BME280;46289;51.992;4.498;2023-02-28T04:19:40;103383.78;;;2.60;87.05
60437;BME280;46289;51.992;4.498;2023-02-28T04:21:47;103388.94;;;2.59;87.37
60437;BME280;46289;51.992;4.498;2023-02-28T04:23:57;103387.31;;;2.61;87.32
60437;BME280;46289;51.992;4.498;2023-02-28T04:26:03;103391.75;;;2.65;86.91
60437;BME280;46289;51.992;4.498;2023-02-28T04:28:09;103389.13;;;2.63;86.93
60437;BME280;46289;51.992;4.498;2023-02-28T04:30:14;103385.56;;;2.61;86.38
60437;BME280;46289;51.992;4.498;2023-02-28T04:32:19;103388.06;;;2.58;86.44
60437;BME280;46289;51.992;4.498;2023-02-28T04:34:27;103394.09;;;2.57;86.49
60437;BME280;46289;51.992;4.498;2023-02-28T04:36:34;103396.78;;;2.60;86.34
60437;BME280;46289;51.992;4.498;2023-02-28T04:38:39;103396.91;;;2.63;86.01
60437;BME280;46289;51.992;4.498;2023-02-28T04:40:48;103395.97;;;2.61;85.96
60437;BME280;46289;51.992;4.498;2023-02-28T04:42:53;103394.19;;;2.60;86.24
60437;BME280;46289;51.992;4.498;2023-02-28T04:44:57;103396.84;;;2.62;85.79
60437;BME280;46289;51.992;4.498;2023-02-28T04:47:02;103398.66;;;2.64;85.58
60437;BME280;46289;51.992;4.498;2023-02-28T04:49:08;103393.47;;;2.64;85.45
60437;BME280;46289;51.992;4.498;2023-02-28T04:51:15;103402.13;;;2.65;85.18
60437;BME280;46289;51.992;4.498;2023-02-28T04:53:21;103400.38;;;2.64;84.85
60437;BME280;46289;51.992;4.498;2023-02-28T04:55:26;103404.00;;;2.69;84.72
60437;BME280;46289;51.992;4.498;2023-02-28T04:57:35;103403.00;;;2.66;84.83
60437;BME280;46289;51.992;4.498;2023-02-28T04:59:39;103401.19;;;2.63;84.46
60437;BME280;46289;51.992;4.498;2023-02-28T05:01:47;103401.41;;;2.69;84.37
60437;BME280;46289;51.992;4.498;2023-02-28T05:03:53;103404.78;;;2.67;84.79
60437;BME280;46289;51.992;4.498;2023-02-28T05:05:58;103412.56;;;2.67;84.33
60437;BME280;46289;51.992;4.498;2023-02-28T05:08:04;103411.06;;;2.73;83.67
60437;BME280;46289;51.992;4.498;2023-02-28T05:10:11;103405.84;;;2.73;83.53
60437;BME280;46289;51.992;4.498;2023-02-28T05:12:16;103404.88;;;2.70;83.85
60437;BME280;46289;51.992;4.498;2023-02-28T05:14:23;103403.13;;;2.69;83.31
60437;BME280;46289;51.992;4.498;2023-02-28T05:16:28;103401.94;;;2.59;83.59
60437;BME280;46289;51.992;4.498;2023-02-28T05:18:33;103410.66;;;2.61;83.40
60437;BME280;46289;51.992;4.498;2023-02-28T05:20:37;103394.06;;;2.56;83.26
60437;BME280;46289;51.992;4.498;2023-02-28T05:22:43;103399.84;;;2.49;82.75
60437;BME280;46289;51.992;4.498;2023-02-28T05:24:48;103400.13;;;2.56;82.14
60437;BME280;46289;51.992;4.498;2023-02-28T05:26:54;103401.06;;;2.58;81.53
60437;BME280;46289;51.992;4.498;2023-02-28T05:28:59;103406.13;;;2.55;81.22
60437;BME280;46289;51.992;4.498;2023-02-28T05:31:07;103406.97;;;2.54;81.16
60437;BME280;46289;51.992;4.498;2023-02-28T05:33:12;103402.53;;;2.52;81.50
60437;BME280;46289;51.992;4.498;2023-02-28T05:35:17;103402.72;;;2.56;80.57
60437;BME280;46289;51.992;4.498;2023-02-28T05:37:22;103406.09;;;2.54;80.96
60437;BME280;46289;51.992;4.498;2023-02-28T05:39:26;103396.56;;;2.54;80.74
60437;BME280;46289;51.992;4.498;2023-02-28T05:41:32;103401.00;;;2.57;80.51
60437;BME280;46289;51.992;4.498;2023-02-28T05:43:37;103406.94;;;2.53;80.83
60437;BME280;46289;51.992;4.498;2023-02-28T05:45:42;103404.25;;;2.51;81.07
60437;BME280;46289;51.992;4.498;2023-02-28T05:47:53;103399.78;;;2.47;80.56
60437;BME280;46289;51.992;4.498;2023-02-28T05:49:57;103407.47;;;2.44;80.88
60437;BME280;46289;51.992;4.498;2023-02-28T05:52:04;103407.63;;;2.49;81.11
60437;BME280;46289;51.992;4.498;2023-02-28T05:54:09;103406.59;;;2.44;81.62
60437;BME280;46289;51.992;4.498;2023-02-28T05:56:16;103400.38;;;2.38;81.59
60437;BME280;46289;51.992;4.498;2023-02-28T05:58:20;103401.47;;;2.45;81.72
60437;BME280;46289;51.992;4.498;2023-02-28T06:00:27;103398.88;;;2.45;81.30
60437;BME280;46289;51.992;4.498;2023-02-28T06:02:32;103396.38;;;2.48;81.44
60437;BME280;46289;51.992;4.498;2023-02-28T06:04:39;103395.50;;;2.48;81.33
60437;BME280;46289;51.992;4.498;2023-02-28T06:06:45;103393.88;;;2.51;81.39
60437;BME280;46289;51.992;4.498;2023-02-28T06:08:49;103394.56;;;2.46;81.28
60437;BME280;46289;51.992;4.498;2023-02-28T06:10:54;103391.22;;;2.50;80.98
60437;BME280;46289;51.992;4.498;2023-02-28T06:12:59;103394.75;;;2.52;81.03
60437;BME280;46289;51.992;4.498;2023-02-28T06:15:05;103395.50;;;2.48;81.20
60437;BME280;46289;51.992;4.498;2023-02-28T06:17:10;103402.34;;;2.46;79.40
60437;BME280;46289;51.992;4.498;2023-02-28T06:19:15;103400.88;;;2.28;78.54
60437;BME280;46289;51.992;4.498;2023-02-28T06:21:22;103400.28;;;2.11;78.45
60437;BME280;46289;51.992;4.498;2023-02-28T06:23:30;103394.22;;;2.11;77.67
60437;BME280;46289;51.992;4.498;2023-02-28T06:25:35;103391.47;;;2.06;78.29
60437;BME280;46289;51.992;4.498;2023-02-28T06:27:39;103398.38;;;2.06;78.48
60437;BME280;46289;51.992;4.498;2023-02-28T06:29:47;103401.72;;;2.03;79.32
60437;BME280;46289;51.992;4.498;2023-02-28T06:31:52;103400.59;;;1.96;78.67
60437;BME280;46289;51.992;4.498;2023-02-28T06:33:57;103405.50;;;1.89;78.69
60437;BME280;46289;51.992;4.498;2023-02-28T06:36:02;103402.91;;;1.89;79.04
60437;BME280;46289;51.992;4.498;2023-02-28T06:38:09;103405.28;;;1.83;79.19
60437;BME280;46289;51.992;4.498;2023-02-28T06:40:15;103418.09;;;1.78;78.36
60437;BME280;46289;51.992;4.498;2023-02-28T06:42:20;103412.72;;;1.73;77.58
60437;BME280;46289;51.992;4.498;2023-02-28T06:44:26;103414.44;;;1.73;77.45
60437;BME280;46289;51.992;4.498;2023-02-28T06:46:38;103409.44;;;1.78;77.02
60437;BME280;46289;51.992;4.498;2023-02-28T06:48:43;103414.63;;;1.78;77.46
60437;BME280;46289;51.992;4.498;2023-02-28T06:50:48;103423.22;;;1.77;77.53
60437;BME280;46289;51.992;4.498;2023-02-28T06:52:53;103417.88;;;1.72;77.55
60437;BME280;46289;51.992;4.498;2023-02-28T06:55:00;103416.06;;;1.71;77.50
60437;BME280;46289;51.992;4.498;2023-02-28T06:57:05;103421.34;;;1.72;77.36
60437;BME280;46289;51.992;4.498;2023-02-28T06:59:10;103422.97;;;1.70;77.92
60437;BME280;46289;51.992;4.498;2023-02-28T07:01:15;103429.75;;;1.67;78.33
60437;BME280;46289;51.992;4.498;2023-02-28T07:03:20;103431.06;;;1.56;80.27
60437;BME280;46289;51.992;4.498;2023-02-28T07:05:25;103424.06;;;1.53;80.40
60437;BME280;46289;51.992;4.498;2023-02-28T07:07:30;103440.31;;;1.49;80.88
60437;BME280;46289;51.992;4.498;2023-02-28T07:09:36;103439.88;;;1.38;82.56
60437;BME280;46289;51.992;4.498;2023-02-28T07:11:43;103441.63;;;1.39;82.25
60437;BME280;46289;51.992;4.498;2023-02-28T07:13:48;103448.75;;;1.45;83.07
60437;BME280;46289;51.992;4.498;2023-02-28T07:15:54;103448.19;;;1.29;84.24
60437;BME280;46289;51.992;4.498;2023-02-28T07:17:59;103454.88;;;1.24;84.70
60437;BME280;46289;51.992;4.498;2023-02-28T07:20:04;103457.38;;;1.21;85.28
60437;BME280;46289;51.992;4.498;2023-02-28T07:22:10;103453.56;;;1.13;85.89
60437;BME280;46289;51.992;4.498;2023-02-28T07:24:16;103460.56;;;1.16;85.95
60437;BME280;46289;51.992;4.498;2023-02-28T07:26:21;103452.50;;;1.08;86.26
60437;BME280;46289;51.992;4.498;2023-02-28T07:28:29;103457.41;;;1.02;87.26
60437;BME280;46289;51.992;4.498;2023-02-28T07:30:34;103459.69;;;0.94;87.53
60437;BME280;46289;51.992;4.498;2023-02-28T07:32:38;103455.78;;;0.83;88.12
60437;BME280;46289;51.992;4.498;2023-02-28T07:34:46;103456.22;;;0.73;88.51
60437;BME280;46289;51.992;4.498;2023-02-28T07:36:52;103456.16;;;0.71;88.93
60437;BME280;46289;51.992;4.498;2023-02-28T07:38:59;103461.50;;;0.76;88.99
60437;BME280;46289;51.992;4.498;2023-02-28T07:41:04;103457.41;;;0.81;88.77
60437;BME280;46289;51.992;4.498;2023-02-28T07:43:12;103465.72;;;0.74;88.57
60437;BME280;46289;51.992;4.498;2023-02-28T07:45:19;103456.91;;;0.69;89.01
60437;BME280;46289;51.992;4.498;2023-02-28T07:47:26;103458.03;;;0.75;88.98
60437;BME280;46289;51.992;4.498;2023-02-28T07:49:30;103464.59;;;0.67;89.62
60437;BME280;46289;51.992;4.498;2023-02-28T07:51:35;103464.19;;;0.58;90.38
60437;BME280;46289;51.992;4.498;2023-02-28T07:53:40;103466.72;;;0.56;89.99
60437;BME280;46289;51.992;4.498;2023-02-28T07:55:45;103469.94;;;0.51;90.05
60437;BME280;46289;51.992;4.498;2023-02-28T07:57:49;103472.41;;;0.48;90.15
60437;BME280;46289;51.992;4.498;2023-02-28T07:59:54;103477.84;;;0.54;90.38
60437;BME280;46289;51.992;4.498;2023-02-28T08:02:02;103467.28;;;0.49;90.10
60437;BME280;46289;51.992;4.498;2023-02-28T08:04:07;103467.06;;;0.44;90.57
60437;BME280;46289;51.992;4.498;2023-02-28T08:06:16;103476.41;;;0.41;90.87
60437;BME280;46289;51.992;4.498;2023-02-28T08:08:21;103471.16;;;0.39;91.08
60437;BME280;46289;51.992;4.498;2023-02-28T08:10:30;103472.84;;;0.39;90.89
60437;BME280;46289;51.992;4.498;2023-02-28T08:12:35;103477.38;;;0.43;90.82
60437;BME280;46289;51.992;4.498;2023-02-28T08:14:40;103476.53;;;0.44;90.93
60437;BME280;46289;51.992;4.498;2023-02-28T08:16:45;103474.25;;;0.50;90.99
60437;BME280;46289;51.992;4.498;2023-02-28T08:18:52;103479.47;;;0.52;91.33
60437;BME280;46289;51.992;4.498;2023-02-28T08:20:57;103476.88;;;0.52;91.08
60437;BME280;46289;51.992;4.498;2023-02-28T08:23:02;103476.13;;;0.54;91.18
60437;BME280;46289;51.992;4.498;2023-02-28T08:25:08;103480.28;;;0.51;91.48
60437;BME280;46289;51.992;4.498;2023-02-28T08:27:13;103476.88;;;0.52;91.19
60437;BME280;46289;51.992;4.498;2023-02-28T08:29:19;103477.84;;;0.54;91.59
60437;BME280;46289;51.992;4.498;2023-02-28T08:31:23;103474.53;;;0.58;91.28
60437;BME280;46289;51.992;4.498;2023-02-28T08:33:29;103468.63;;;0.60;91.58
60437;BME280;46289;51.992;4.498;2023-02-28T08:35:38;103466.72;;;0.56;91.64
60437;BME280;46289;51.992;4.498;2023-02-28T08:37:42;103468.16;;;0.50;92.34
60437;BME280;46289;51.992;4.498;2023-02-28T08:39:47;103465.97;;;0.59;91.82
60437;BME280;46289;51.992;4.498;2023-02-28T08:41:56;103457.50;;;0.63;91.69
60437;BME280;46289;51.992;4.498;2023-02-28T08:44:08;103466.09;;;0.62;92.16
60437;BME280;46289;51.992;4.498;2023-02-28T08:46:14;103463.78;;;0.68;91.69
60437;BME280;46289;51.992;4.498;2023-02-28T08:48:18;103462.84;;;0.66;91.75
60437;BME280;46289;51.992;4.498;2023-02-28T08:50:23;103456.50;;;0.59;92.21
60437;BME280;46289;51.992;4.498;2023-02-28T08:52:31;103446.25;;;0.61;92.74
60437;BME280;46289;51.992;4.498;2023-02-28T08:54:38;103441.84;;;0.60;92.68
60437;BME280;46289;51.992;4.498;2023-02-28T08:56:43;103447.03;;;0.60;93.23
60437;BME280;46289;51.992;4.498;2023-02-28T08:58:49;103446.56;;;0.69;93.00
60437;BME280;46289;51.992;4.498;2023-02-28T09:00:57;103443.91;;;0.67;92.85
60437;BME280;46289;51.992;4.498;2023-02-28T09:03:02;103443.03;;;0.67;93.02
60437;BME280;46289;51.992;4.498;2023-02-28T09:05:09;103448.25;;;0.68;93.00
60437;BME280;46289;51.992;4.498;2023-02-28T09:07:14;103444.97;;;0.72;92.77
60437;BME280;46289;51.992;4.498;2023-02-28T09:09:24;103444.41;;;0.79;92.59
60437;BME280;46289;51.992;4.498;2023-02-28T09:11:31;103450.47;;;0.80;92.33
60437;BME280;46289;51.992;4.498;2023-02-28T09:13:37;103450.91;;;0.91;92.19
60437;BME280;46289;51.992;4.498;2023-02-28T09:15:42;103446.09;;;1.00;91.91
60437;BME280;46289;51.992;4.498;2023-02-28T09:17:47;103456.72;;;1.06;91.48
60437;BME280;46289;51.992;4.498;2023-02-28T09:19:52;103464.19;;;1.19;91.75
60437;BME280;46289;51.992;4.498;2023-02-28T09:21:57;103460.19;;;1.27;91.20
60437;BME280;46289;51.992;4.498;2023-02-28T09:24:02;103458.66;;;1.33;91.00
60437;BME280;46289;51.992;4.498;2023-02-28T09:26:13;103458.91;;;1.39;91.31
60437;BME280;46289;51.992;4.498;2023-02-28T09:28:18;103452.19;;;1.44;90.69
60437;BME280;46289;51.992;4.498;2023-02-28T09:30:26;103458.75;;;1.57;90.64
60437;BME280;46289;51.992;4.498;2023-02-28T09:32:32;103459.63;;;1.57;90.40
60437;BME280;46289;51.992;4.498;2023-02-28T09:34:37;103457.31;;;1.65;90.17
60437;BME280;46289;51.992;4.498;2023-02-28T09:36:42;103455.03;;;1.72;90.26
60437;BME280;46289;51.992;4.498;2023-02-28T09:38:48;103456.16;;;1.79;90.14
60437;BME280;46289;51.992;4.498;2023-02-28T09:40:56;103458.25;;;1.89;90.54
60437;BME280;46289;51.992;4.498;2023-02-28T09:43:05;103454.09;;;1.93;90.10
60437;BME280;46289;51.992;4.498;2023-02-28T09:45:19;103461.19;;;1.98;89.38
60437;BME280;46289;51.992;4.498;2023-02-28T09:47:30;103450.28;;;2.07;88.85
60437;BME280;46289;51.992;4.498;2023-02-28T09:49:39;103454.75;;;2.11;88.26
60437;BME280;46289;51.992;4.498;2023-02-28T09:51:53;103449.78;;;2.17;86.20
60437;BME280;46289;51.992;4.498;2023-02-28T09:54:00;103451.59;;;2.20;86.86
60437;BME280;46289;51.992;4.498;2023-02-28T09:56:08;103455.84;;;2.18;86.57
60437;BME280;46289;51.992;4.498;2023-02-28T10:00:40;103467.94;;;2.17;86.50
60437;BME280;46289;51.992;4.498;2023-02-28T10:03:08;103455.94;;;2.21;87.10
60437;BME280;46289;51.992;4.498;2023-02-28T10:05:18;103463.81;;;2.23;86.36
60437;BME280;46289;51.992;4.498;2023-02-28T10:07:39;103460.06;;;2.14;86.36
60437;BME280;46289;51.992;4.498;2023-02-28T10:09:53;103462.94;;;2.22;86.71
60437;BME280;46289;51.992;4.498;2023-02-28T10:12:04;103457.00;;;2.26;87.13
60437;BME280;46289;51.992;4.498;2023-02-28T10:14:16;103459.88;;;2.34;85.93
60437;BME280;46289;51.992;4.498;2023-02-28T10:16:27;103451.81;;;2.26;84.26
60437;BME280;46289;51.992;4.498;2023-02-28T10:18:43;103462.56;;;2.37;85.36
60437;BME280;46289;51.992;4.498;2023-02-28T10:20:49;103465.41;;;2.43;84.73
60437;BME280;46289;51.992;4.498;2023-02-28T10:22:59;103461.47;;;2.54;85.07
60437;BME280;46289;51.992;4.498;2023-02-28T10:25:18;103453.06;;;2.61;83.76
60437;BME280;46289;51.992;4.498;2023-02-28T10:27:28;103463.75;;;2.71;82.52
60437;BME280;46289;51.992;4.498;2023-02-28T10:29:36;103459.22;;;2.63;80.21
60437;BME280;46289;51.992;4.498;2023-02-28T10:31:47;103462.59;;;2.61;80.32
60437;BME280;46289;51.992;4.498;2023-02-28T10:33:52;103460.97;;;2.64;79.32
60437;BME280;46289;51.992;4.498;2023-02-28T10:35:58;103461.81;;;2.63;79.58
60437;BME280;46289;51.992;4.498;2023-02-28T10:38:13;103457.16;;;2.55;79.26
60437;BME280;46289;51.992;4.498;2023-02-28T10:40:32;103452.91;;;2.57;78.94
60437;BME280;46289;51.992;4.498;2023-02-28T10:42:38;103457.25;;;2.58;77.02
60437;BME280;46289;51.992;4.498;2023-02-28T10:44:45;103456.81;;;2.70;76.91
60437;BME280;46289;51.992;4.498;2023-02-28T10:46:52;103450.00;;;2.73;76.79
60437;BME280;46289;51.992;4.498;2023-02-28T10:49:03;103452.06;;;2.83;78.26
60437;BME280;46289;51.992;4.498;2023-02-28T10:51:11;103451.75;;;3.00;78.11
60437;BME280;46289;51.992;4.498;2023-02-28T10:53:28;103451.81;;;3.01;75.55
60437;BME280;46289;51.992;4.498;2023-02-28T10:56:00;103446.59;;;3.27;76.83
60437;BME280;46289;51.992;4.498;2023-02-28T10:58:20;103442.03;;;3.48;77.22
60437;BME280;46289;51.992;4.498;2023-02-28T11:00:34;103440.31;;;3.78;74.14
60437;BME280;46289;51.992;4.498;2023-02-28T11:02:40;103439.44;;;3.77;72.63
60437;BME280;46289;51.992;4.498;2023-02-28T11:04:48;103430.47;;;3.97;71.79
60437;BME280;46289;51.992;4.498;2023-02-28T11:06:57;103432.81;;;3.88;70.12
60437;BME280;46289;51.992;4.498;2023-02-28T11:09:14;103434.94;;;4.02;68.23
60437;BME280;46289;51.992;4.498;2023-02-28T11:11:25;103432.13;;;4.26;66.54
60437;BME280;46289;51.992;4.498;2023-02-28T11:13:33;103426.22;;;4.31;66.40
60437;BME280;46289;51.992;4.498;2023-02-28T11:15:50;103427.34;;;4.74;66.84
60437;BME280;46289;51.992;4.498;2023-02-28T11:18:02;103427.94;;;4.99;66.63
60437;BME280;46289;51.992;4.498;2023-02-28T11:20:22;103429.81;;;5.04;64.65
60437;BME280;46289;51.992;4.498;2023-02-28T11:22:34;103434.66;;;4.89;63.83
60437;BME280;46289;51.992;4.498;2023-02-28T11:24:42;103422.59;;;4.93;64.55